sensor_id;sensor_type;location;lat;lon;timestamp;temperature;humidity
25058;DHT22;13057;50.978;11.034;2023-04-23T00:01:53;16.80;94.20
25058;DHT22;13057;50.978;11.034;2023-04-23T00:04:22;16.80;94.00
25058;DHT22;13057;50.978;11.034;2023-04-23T00:06:51;16.80;94.00
25058;DHT22;13057;50.978;11.034;2023-04-23T00:09:17;16.80;94.00
25058;DHT22;13057;50.978;11.034;2023-04-23T00:11:43;16.80;94.20
25058;DHT22;13057;50.978;11.034;2023-04-23T00:14:10;16.70;94.10
25058;DHT22;13057;50.978;11.034;2023-04-23T00:16:37;16.70;94.10
25058;DHT22;13057;50.978;11.034;2023-04-23T00:19:03;16.70;94.20
25058;DHT22;13057;50.978;11.034;2023-04-23T00:21:30;16.70;94.20
25058;DHT22;13057;50.978;11.034;2023-04-23T00:23:56;16.70;94.30
25058;DHT22;13057;50.978;11.034;2023-04-23T00:26:22;16.70;94.50
25058;DHT22;13057;50.978;11.034;2023-04-23T00:28:48;16.70;94.40
25058;DHT22;13057;50.978;11.034;2023-04-23T00:31:14;16.70;94.40
25058;DHT22;13057;50.978;11.034;2023-04-23T00:33:40;16.70;94.30
25058;DHT22;13057;50.978;11.034;2023-04-23T00:36:06;16.60;94.30
25058;DHT22;13057;50.978;11.034;2023-04-23T00:38:32;16.60;94.40
25058;DHT22;13057;50.978;11.034;2023-04-23T00:40:59;16.60;94.40
25058;DHT22;13057;50.978;11.034;2023-04-23T00:43:25;16.60;94.50
25058;DHT22;13057;50.978;11.034;2023-04-23T00:45:51;16.60;94.50
25058;DHT22;13057;50.978;11.034;2023-04-23T00:48:17;16.60;94.60
25058;DHT22;13057;50.978;11.034;2023-04-23T00:50:43;16.60;94.60
25058;DHT22;13057;50.978;11.034;2023-04-23T00:53:09;16.60;94.60
25058;DHT22;13057;50.978;11.034;2023-04-23T00:55:35;16.60;94.80
25058;DHT22;13057;50.978;11.034;2023-04-23T00:58:00;16.60;94.80
25058;DHT22;13057;50.978;11.034;2023-04-23T01:00:27;16.50;94.90
25058;DHT22;13057;50.978;11.034;2023-04-23T01:02:52;16.60;95.00
25058;DHT22;13057;50.978;11.034;2023-04-23T01:05:19;16.50;95.10
25058;DHT22;13057;50.978;11.034;2023-04-23T01:07:46;16.50;95.10
25058;DHT22;13057;50.978;11.034;2023-04-23T01:10:12;16.50;95.30
25058;DHT22;13057;50.978;11.034;2023-04-23T01:12:39;16.50;95.40
25058;DHT22;13057;50.978;11.034;2023-04-23T01:15:05;16.40;95.60
25058;DHT22;13057;50.978;11.034;2023-04-23T01:17:33;16.40;95.60
25058;DHT22;13057;50.978;11.034;2023-04-23T01:19:59;16.40;95.80
25058;DHT22;13057;50.978;11.034;2023-04-23T01:22:25;16.40;95.90
25058;DHT22;13057;50.978;11.034;2023-04-23T01:24:51;16.40;96.10
25058;DHT22;13057;50.978;11.034;2023-04-23T01:27:17;16.30;96.20
25058;DHT22;13057;50.978;11.034;2023-04-23T01:29:47;16.30;96.50
25058;DHT22;13057;50.978;11.034;2023-04-23T01:32:12;16.30;96.50
25058;DHT22;13057;50.978;11.034;2023-04-23T01:34:39;16.30;96.70
25058;DHT22;13057;50.978;11.034;2023-04-23T01:37:06;16.30;97.00
25058;DHT22;13057;50.978;11.034;2023-04-23T01:39:32;16.20;97.10
25058;DHT22;13057;50.978;11.034;2023-04-23T01:41:58;16.20;97.20
25058;DHT22;13057;50.978;11.034;2023-04-23T01:44:25;16.20;97.40
25058;DHT22;13057;50.978;11.034;2023-04-23T01:46:52;16.20;97.40
25058;DHT22;13057;50.978;11.034;2023-04-23T01:49:18;16.10;97.50
25058;DHT22;13057;50.978;11.034;2023-04-23T01:51:44;16.20;97.80
25058;DHT22;13057;50.978;11.034;2023-04-23T01:54:10;16.10;97.80
25058;DHT22;13057;50.978;11.034;2023-04-23T01:56:35;16.10;97.80
25058;DHT22;13057;50.978;11.034;2023-04-23T01:59:02;16.10;98.20
25058;DHT22;13057;50.978;11.034;2023-04-23T02:01:41;16.10;98.00
25058;DHT22;13057;50.978;11.034;2023-04-23T02:04:08;16.10;98.10
25058;DHT22;13057;50.978;11.034;2023-04-23T02:06:34;16.00;98.20
25058;DHT22;13057;50.978;11.034;2023-04-23T02:09:00;16.00;98.20
25058;DHT22;13057;50.978;11.034;2023-04-23T02:11:26;16.00;98.40
25058;DHT22;13057;50.978;11.034;2023-04-23T02:13:52;16.00;98.50
25058;DHT22;13057;50.978;11.034;2023-04-23T02:16:19;16.00;98.60
25058;DHT22;13057;50.978;11.034;2023-04-23T02:18:44;15.90;98.70
25058;DHT22;13057;50.978;11.034;2023-04-23T02:21:10;15.90;98.80
25058;DHT22;13057;50.978;11.034;2023-04-23T02:23:37;15.90;99.00
25058;DHT22;13057;50.978;11.034;2023-04-23T02:26:04;15.90;99.10
25058;DHT22;13057;50.978;11.034;2023-04-23T02:28:29;15.90;99.20
25058;DHT22;13057;50.978;11.034;2023-04-23T02:30:55;15.80;99.30
25058;DHT22;13057;50.978;11.034;2023-04-23T02:33:21;15.80;99.40
25058;DHT22;13057;50.978;11.034;2023-04-23T02:35:47;15.80;99.50
25058;DHT22;13057;50.978;11.034;2023-04-23T02:38:13;15.70;99.60
25058;DHT22;13057;50.978;11.034;2023-04-23T02:40:38;15.70;99.80
25058;DHT22;13057;50.978;11.034;2023-04-23T02:43:05;15.70;99.90
25058;DHT22;13057;50.978;11.034;2023-04-23T02:45:30;15.70;99.90
25058;DHT22;13057;50.978;11.034;2023-04-23T02:47:56;15.70;99.90
25058;DHT22;13057;50.978;11.034;2023-04-23T02:50:22;15.70;99.90
25058;DHT22;13057;50.978;11.034;2023-04-23T02:52:48;15.70;99.90
25058;DHT22;13057;50.978;11.034;2023-04-23T02:55:14;15.70;99.90
25058;DHT22;13057;50.978;11.034;2023-04-23T02:57:40;15.70;99.90
25058;DHT22;13057;50.978;11.034;2023-04-23T03:00:07;15.70;99.90
25058;DHT22;13057;50.978;11.034;2023-04-23T03:02:34;15.60;99.90
25058;DHT22;13057;50.978;11.034;2023-04-23T03:04:59;15.50;99.90
25058;DHT22;13057;50.978;11.034;2023-04-23T03:07:25;15.60;99.90
25058;DHT22;13057;50.978;11.034;2023-04-23T03:09:51;15.60;99.90
25058;DHT22;13057;50.978;11.034;2023-04-23T03:12:17;15.50;99.90
25058;DHT22;13057;50.978;11.034;2023-04-23T03:14:43;15.50;99.90
25058;DHT22;13057;50.978;11.034;2023-04-23T03:17:09;15.50;99.90
25058;DHT22;13057;50.978;11.034;2023-04-23T03:19:35;15.50;99.90
25058;DHT22;13057;50.978;11.034;2023-04-23T03:22:01;15.50;99.90
25058;DHT22;13057;50.978;11.034;2023-04-23T03:24:32;15.40;99.90
25058;DHT22;13057;50.978;11.034;2023-04-23T03:26:58;15.40;99.90
25058;DHT22;13057;50.978;11.034;2023-04-23T03:29:24;15.40;99.90
25058;DHT22;13057;50.978;11.034;2023-04-23T03:31:52;15.40;99.90
25058;DHT22;13057;50.978;11.034;2023-04-23T03:34:17;15.40;99.90
25058;DHT22;13057;50.978;11.034;2023-04-23T03:36:49;15.40;99.90
25058;DHT22;13057;50.978;11.034;2023-04-23T03:39:18;15.40;99.90
25058;DHT22;13057;50.978;11.034;2023-04-23T03:41:45;15.40;99.90
25058;DHT22;13057;50.978;11.034;2023-04-23T03:44:11;15.40;99.90
25058;DHT22;13057;50.978;11.034;2023-04-23T03:46:36;15.30;99.90
25058;DHT22;13057;50.978;11.034;2023-04-23T03:49:02;15.30;99.90
25058;DHT22;13057;50.978;11.034;2023-04-23T03:51:28;15.30;99.90
25058;DHT22;13057;50.978;11.034;2023-04-23T03:53:54;15.30;99.90
25058;DHT22;13057;50.978;11.034;2023-04-23T03:56:20;15.30;99.90
25058;DHT22;13057;50.978;11.034;2023-04-23T03:58:45;15.20;99.90
25058;DHT22;13057;50.978;11.034;2023-04-23T04:01:12;15.20;99.90
25058;DHT22;13057;50.978;11.034;2023-04-23T04:03:38;15.20;99.90
25058;DHT22;13057;50.978;11.034;2023-04-23T04:06:04;15.20;99.90
25058;DHT22;13057;50.978;11.034;2023-04-23T04:08:29;15.20;99.90
25058;DHT22;13057;50.978;11.034;2023-04-23T04:10:56;15.20;99.90
25058;DHT22;13057;50.978;11.034;2023-04-23T04:13:21;15.20;99.90
25058;DHT22;13057;50.978;11.034;2023-04-23T04:15:47;15.20;99.90
25058;DHT22;13057;50.978;11.034;2023-04-23T04:18:13;15.20;99.90
25058;DHT22;13057;50.978;11.034;2023-04-23T04:20:40;15.20;99.90
25058;DHT22;13057;50.978;11.034;2023-04-23T04:23:08;15.20;99.90
25058;DHT22;13057;50.978;11.034;2023-04-23T04:25:34;15.10;99.90
25058;DHT22;13057;50.978;11.034;2023-04-23T04:28:05;15.10;99.90
25058;DHT22;13057;50.978;11.034;2023-04-23T04:30:33;15.10;99.90
25058;DHT22;13057;50.978;11.034;2023-04-23T04:32:58;15.10;99.90
25058;DHT22;13057;50.978;11.034;2023-04-23T04:35:26;15.00;99.90
25058;DHT22;13057;50.978;11.034;2023-04-23T04:37:52;14.90;99.90
25058;DHT22;13057;50.978;11.034;2023-04-23T04:40:19;14.90;99.90
25058;DHT22;13057;50.978;11.034;2023-04-23T04:42:45;14.90;99.90
25058;DHT22;13057;50.978;11.034;2023-04-23T04:45:11;14.90;99.90
25058;DHT22;13057;50.978;11.034;2023-04-23T04:47:38;14.90;99.90
25058;DHT22;13057;50.978;11.034;2023-04-23T04:50:04;14.80;99.90
25058;DHT22;13057;50.978;11.034;2023-04-23T04:52:30;14.80;99.90
25058;DHT22;13057;50.978;11.034;2023-04-23T04:54:56;14.80;99.90
25058;DHT22;13057;50.978;11.034;2023-04-23T04:57:22;14.80;99.90
25058;DHT22;13057;50.978;11.034;2023-04-23T04:59:49;14.70;99.90
25058;DHT22;13057;50.978;11.034;2023-04-23T05:02:15;14.70;99.90
25058;DHT22;13057;50.978;11.034;2023-04-23T05:04:41;14.80;99.90
25058;DHT22;13057;50.978;11.034;2023-04-23T05:07:08;14.70;99.90
25058;DHT22;13057;50.978;11.034;2023-04-23T05:09:34;14.70;99.90
25058;DHT22;13057;50.978;11.034;2023-04-23T05:12:00;14.70;99.90
25058;DHT22;13057;50.978;11.034;2023-04-23T05:14:26;14.60;99.90
25058;DHT22;13057;50.978;11.034;2023-04-23T05:16:52;14.70;99.90
25058;DHT22;13057;50.978;11.034;2023-04-23T05:19:18;14.60;99.90
25058;DHT22;13057;50.978;11.034;2023-04-23T05:21:44;14.60;99.90
25058;DHT22;13057;50.978;11.034;2023-04-23T05:24:10;14.60;99.90
25058;DHT22;13057;50.978;11.034;2023-04-23T05:26:36;14.60;99.90
25058;DHT22;13057;50.978;11.034;2023-04-23T05:29:01;14.50;99.90
25058;DHT22;13057;50.978;11.034;2023-04-23T05:31:28;14.50;99.90
25058;DHT22;13057;50.978;11.034;2023-04-23T05:33:54;14.50;99.90
25058;DHT22;13057;50.978;11.034;2023-04-23T05:36:20;14.50;99.90
25058;DHT22;13057;50.978;11.034;2023-04-23T05:38:46;14.50;99.90
25058;DHT22;13057;50.978;11.034;2023-04-23T05:41:12;14.50;99.90
25058;DHT22;13057;50.978;11.034;2023-04-23T05:43:39;14.50;99.90
25058;DHT22;13057;50.978;11.034;2023-04-23T05:46:05;14.50;99.90
25058;DHT22;13057;50.978;11.034;2023-04-23T05:48:32;14.50;99.90
25058;DHT22;13057;50.978;11.034;2023-04-23T05:50:58;14.50;99.90
25058;DHT22;13057;50.978;11.034;2023-04-23T05:53:24;14.40;99.90
25058;DHT22;13057;50.978;11.034;2023-04-23T05:55:50;14.40;99.90
25058;DHT22;13057;50.978;11.034;2023-04-23T05:58:16;14.50;99.90
25058;DHT22;13057;50.978;11.034;2023-04-23T06:00:44;14.30;99.90
25058;DHT22;13057;50.978;11.034;2023-04-23T06:03:10;14.10;99.90
25058;DHT22;13057;50.978;11.034;2023-04-23T06:05:36;13.90;99.90
25058;DHT22;13057;50.978;11.034;2023-04-23T06:08:02;13.90;99.90
25058;DHT22;13057;50.978;11.034;2023-04-23T06:10:29;13.80;99.90
25058;DHT22;13057;50.978;11.034;2023-04-23T06:12:54;13.70;99.90
25058;DHT22;13057;50.978;11.034;2023-04-23T06:15:20;13.70;99.90
25058;DHT22;13057;50.978;11.034;2023-04-23T06:17:51;13.70;99.90
25058;DHT22;13057;50.978;11.034;2023-04-23T06:20:17;13.70;99.90
25058;DHT22;13057;50.978;11.034;2023-04-23T06:22:43;13.70;99.90
25058;DHT22;13057;50.978;11.034;2023-04-23T06:25:09;13.60;99.90
25058;DHT22;13057;50.978;11.034;2023-04-23T06:27:35;13.60;99.90
25058;DHT22;13057;50.978;11.034;2023-04-23T06:30:01;13.50;99.90
25058;DHT22;13057;50.978;11.034;2023-04-23T06:32:27;13.50;99.90
25058;DHT22;13057;50.978;11.034;2023-04-23T06:34:53;13.60;99.90
25058;DHT22;13057;50.978;11.034;2023-04-23T06:37:19;13.60;99.90
25058;DHT22;13057;50.978;11.034;2023-04-23T06:39:45;13.60;99.90
25058;DHT22;13057;50.978;11.034;2023-04-23T06:42:11;13.60;99.90
25058;DHT22;13057;50.978;11.034;2023-04-23T06:44:37;13.60;99.90
25058;DHT22;13057;50.978;11.034;2023-04-23T06:47:03;13.60;99.90
25058;DHT22;13057;50.978;11.034;2023-04-23T06:49:29;13.70;99.90
25058;DHT22;13057;50.978;11.034;2023-04-23T06:51:55;13.70;99.90
25058;DHT22;13057;50.978;11.034;2023-04-23T06:54:21;13.70;99.90
25058;DHT22;13057;50.978;11.034;2023-04-23T06:56:47;13.70;99.90
25058;DHT22;13057;50.978;11.034;2023-04-23T06:59:13;13.80;99.90
25058;DHT22;13057;50.978;11.034;2023-04-23T07:01:38;13.80;99.90
25058;DHT22;13057;50.978;11.034;2023-04-23T07:04:04;13.80;99.90
25058;DHT22;13057;50.978;11.034;2023-04-23T07:06:30;13.90;99.90
25058;DHT22;13057;50.978;11.034;2023-04-23T07:08:59;14.00;99.90
25058;DHT22;13057;50.978;11.034;2023-04-23T07:11:24;14.20;99.90
25058;DHT22;13057;50.978;11.034;2023-04-23T07:13:50;14.20;99.90
25058;DHT22;13057;50.978;11.034;2023-04-23T07:16:16;14.20;99.90
25058;DHT22;13057;50.978;11.034;2023-04-23T07:18:43;14.30;99.90
25058;DHT22;13057;50.978;11.034;2023-04-23T07:21:09;14.30;99.90
25058;DHT22;13057;50.978;11.034;2023-04-23T07:23:35;14.30;99.90
25058;DHT22;13057;50.978;11.034;2023-04-23T07:26:01;14.20;99.90
25058;DHT22;13057;50.978;11.034;2023-04-23T07:28:26;14.30;99.90
25058;DHT22;13057;50.978;11.034;2023-04-23T07:30:52;14.30;99.90
25058;DHT22;13057;50.978;11.034;2023-04-23T07:33:18;14.40;99.90
25058;DHT22;13057;50.978;11.034;2023-04-23T07:35:44;14.40;99.90
25058;DHT22;13057;50.978;11.034;2023-04-23T07:38:10;14.50;99.90
25058;DHT22;13057;50.978;11.034;2023-04-23T07:40:36;14.70;99.90
25058;DHT22;13057;50.978;11.034;2023-04-23T07:43:02;14.70;99.90
25058;DHT22;13057;50.978;11.034;2023-04-23T07:45:28;14.80;99.90
25058;DHT22;13057;50.978;11.034;2023-04-23T07:47:54;14.80;99.90
25058;DHT22;13057;50.978;11.034;2023-04-23T07:50:21;14.90;99.90
25058;DHT22;13057;50.978;11.034;2023-04-23T07:52:47;14.80;99.90
25058;DHT22;13057;50.978;11.034;2023-04-23T07:55:12;14.90;99.90
25058;DHT22;13057;50.978;11.034;2023-04-23T07:57:38;14.90;99.90
25058;DHT22;13057;50.978;11.034;2023-04-23T08:00:05;14.90;99.90
25058;DHT22;13057;50.978;11.034;2023-04-23T08:02:34;15.00;99.90
25058;DHT22;13057;50.978;11.034;2023-04-23T08:05:00;15.10;99.90
25058;DHT22;13057;50.978;11.034;2023-04-23T08:07:26;15.10;99.90
25058;DHT22;13057;50.978;11.034;2023-04-23T08:09:52;15.10;99.90
25058;DHT22;13057;50.978;11.034;2023-04-23T08:12:18;15.10;99.90
25058;DHT22;13057;50.978;11.034;2023-04-23T08:14:44;15.00;99.90
25058;DHT22;13057;50.978;11.034;2023-04-23T08:17:11;15.00;99.90
25058;DHT22;13057;50.978;11.034;2023-04-23T08:19:37;15.10;99.90
25058;DHT22;13057;50.978;11.034;2023-04-23T08:22:03;15.10;99.90
25058;DHT22;13057;50.978;11.034;2023-04-23T08:24:29;15.00;99.90
25058;DHT22;13057;50.978;11.034;2023-04-23T08:26:55;15.00;99.90
25058;DHT22;13057;50.978;11.034;2023-04-23T08:29:22;15.00;99.90
25058;DHT22;13057;50.978;11.034;2023-04-23T08:31:48;15.00;99.90
25058;DHT22;13057;50.978;11.034;2023-04-23T08:34:13;15.00;99.90
25058;DHT22;13057;50.978;11.034;2023-04-23T08:36:39;15.10;99.90
25058;DHT22;13057;50.978;11.034;2023-04-23T08:39:06;15.50;99.90
25058;DHT22;13057;50.978;11.034;2023-04-23T08:41:38;15.60;99.90
25058;DHT22;13057;50.978;11.034;2023-04-23T08:44:17;15.60;99.90
25058;DHT22;13057;50.978;11.034;2023-04-23T08:46:44;15.50;99.90
25058;DHT22;13057;50.978;11.034;2023-04-23T08:49:15;15.60;99.90
25058;DHT22;13057;50.978;11.034;2023-04-23T08:51:47;15.70;99.90
25058;DHT22;13057;50.978;11.034;2023-04-23T08:54:15;15.70;99.90
25058;DHT22;13057;50.978;11.034;2023-04-23T08:56:43;15.80;99.90
25058;DHT22;13057;50.978;11.034;2023-04-23T08:59:10;15.80;99.90
25058;DHT22;13057;50.978;11.034;2023-04-23T09:01:36;15.90;99.90
25058;DHT22;13057;50.978;11.034;2023-04-23T09:04:02;15.80;99.50
25058;DHT22;13057;50.978;11.034;2023-04-23T09:06:29;15.80;98.90
25058;DHT22;13057;50.978;11.034;2023-04-23T09:08:58;15.70;98.90
25058;DHT22;13057;50.978;11.034;2023-04-23T09:11:26;15.80;98.30
25058;DHT22;13057;50.978;11.034;2023-04-23T09:13:53;15.80;98.80
25058;DHT22;13057;50.978;11.034;2023-04-23T09:16:19;15.90;99.40
25058;DHT22;13057;50.978;11.034;2023-04-23T09:18:45;16.00;99.40
25058;DHT22;13057;50.978;11.034;2023-04-23T09:21:11;16.00;98.90
25058;DHT22;13057;50.978;11.034;2023-04-23T09:23:38;16.00;98.30
25058;DHT22;13057;50.978;11.034;2023-04-23T09:26:06;16.10;98.40
25058;DHT22;13057;50.978;11.034;2023-04-23T09:28:34;16.60;99.10
25058;DHT22;13057;50.978;11.034;2023-04-23T09:31:01;17.00;98.50
25058;DHT22;13057;50.978;11.034;2023-04-23T09:33:27;17.40;97.10
25058;DHT22;13057;50.978;11.034;2023-04-23T09:35:53;17.60;95.70
25058;DHT22;13057;50.978;11.034;2023-04-23T09:38:19;17.80;95.00
25058;DHT22;13057;50.978;11.034;2023-04-23T09:40:45;17.90;94.40
25058;DHT22;13057;50.978;11.034;2023-04-23T09:43:11;18.10;94.80
25058;DHT22;13057;50.978;11.034;2023-04-23T09:45:47;18.30;93.10
25058;DHT22;13057;50.978;11.034;2023-04-23T09:48:13;18.20;91.30
25058;DHT22;13057;50.978;11.034;2023-04-23T09:50:39;18.20;91.30
25058;DHT22;13057;50.978;11.034;2023-04-23T09:53:07;18.30;91.80
25058;DHT22;13057;50.978;11.034;2023-04-23T09:55:36;18.40;93.80
25058;DHT22;13057;50.978;11.034;2023-04-23T09:58:04;18.60;91.60
25058;DHT22;13057;50.978;11.034;2023-04-23T10:00:34;18.70;90.40
25058;DHT22;13057;50.978;11.034;2023-04-23T10:03:01;18.90;90.70
25058;DHT22;13057;50.978;11.034;2023-04-23T10:05:29;18.80;90.40
25058;DHT22;13057;50.978;11.034;2023-04-23T10:07:56;18.70;90.40
25058;DHT22;13057;50.978;11.034;2023-04-23T10:10:22;18.60;90.80
25058;DHT22;13057;50.978;11.034;2023-04-23T10:12:51;18.40;91.40
25058;DHT22;13057;50.978;11.034;2023-04-23T10:15:22;18.30;91.90
25058;DHT22;13057;50.978;11.034;2023-04-23T10:17:51;18.50;92.50
25058;DHT22;13057;50.978;11.034;2023-04-23T10:20:21;18.50;92.00
25058;DHT22;13057;50.978;11.034;2023-04-23T10:22:47;18.50;91.00
25058;DHT22;13057;50.978;11.034;2023-04-23T10:25:14;18.50;90.90
25058;DHT22;13057;50.978;11.034;2023-04-23T10:27:42;18.40;90.80
25058;DHT22;13057;50.978;11.034;2023-04-23T10:30:11;18.30;91.60
25058;DHT22;13057;50.978;11.034;2023-04-23T10:32:39;18.40;89.90
25058;DHT22;13057;50.978;11.034;2023-04-23T10:35:07;18.40;90.80
25058;DHT22;13057;50.978;11.034;2023-04-23T10:37:34;18.50;89.90
25058;DHT22;13057;50.978;11.034;2023-04-23T10:40:08;18.50;89.30
25058;DHT22;13057;50.978;11.034;2023-04-23T10:42:37;18.60;90.00
25058;DHT22;13057;50.978;11.034;2023-04-23T10:45:12;18.70;90.40
25058;DHT22;13057;50.978;11.034;2023-04-23T10:47:40;18.80;89.30
25058;DHT22;13057;50.978;11.034;2023-04-23T10:50:20;18.80;88.30
25058;DHT22;13057;50.978;11.034;2023-04-23T10:52:46;18.70;89.80
25058;DHT22;13057;50.978;11.034;2023-04-23T10:55:17;18.70;90.00
25058;DHT22;13057;50.978;11.034;2023-04-23T10:57:56;18.80;89.60
25058;DHT22;13057;50.978;11.034;2023-04-23T11:00:23;18.80;89.10
25058;DHT22;13057;50.978;11.034;2023-04-23T11:02:49;18.80;88.30
25058;DHT22;13057;50.978;11.034;2023-04-23T11:05:16;18.70;89.60
25058;DHT22;13057;50.978;11.034;2023-04-23T11:08:01;18.80;89.90
25058;DHT22;13057;50.978;11.034;2023-04-23T11:10:27;18.80;88.90
25058;DHT22;13057;50.978;11.034;2023-04-23T11:12:55;19.00;89.90
25058;DHT22;13057;50.978;11.034;2023-04-23T11:15:23;19.00;89.00
25058;DHT22;13057;50.978;11.034;2023-04-23T11:18:00;18.90;88.60
25058;DHT22;13057;50.978;11.034;2023-04-23T11:20:26;18.90;90.40
25058;DHT22;13057;50.978;11.034;2023-04-23T11:22:52;18.90;89.10
25058;DHT22;13057;50.978;11.034;2023-04-23T11:25:23;19.00;90.20
25058;DHT22;13057;50.978;11.034;2023-04-23T11:27:50;19.00;90.10
25058;DHT22;13057;50.978;11.034;2023-04-23T11:30:19;19.10;89.40
25058;DHT22;13057;50.978;11.034;2023-04-23T11:32:47;19.00;89.60
25058;DHT22;13057;50.978;11.034;2023-04-23T11:35:14;18.90;89.00
25058;DHT22;13057;50.978;11.034;2023-04-23T11:37:42;18.80;88.80
25058;DHT22;13057;50.978;11.034;2023-04-23T11:40:10;18.80;89.40
25058;DHT22;13057;50.978;11.034;2023-04-23T11:42:42;18.70;88.40
25058;DHT22;13057;50.978;11.034;2023-04-23T11:45:25;18.70;89.20
25058;DHT22;13057;50.978;11.034;2023-04-23T11:47:54;18.70;88.80
25058;DHT22;13057;50.978;11.034;2023-04-23T11:50:22;18.80;90.90
25058;DHT22;13057;50.978;11.034;2023-04-23T11:52:48;18.80;89.10
25058;DHT22;13057;50.978;11.034;2023-04-23T11:55:15;18.70;88.70
25058;DHT22;13057;50.978;11.034;2023-04-23T11:57:42;18.60;88.90
25058;DHT22;13057;50.978;11.034;2023-04-23T12:00:21;18.60;90.30
25058;DHT22;13057;50.978;11.034;2023-04-23T12:02:51;18.70;88.30
25058;DHT22;13057;50.978;11.034;2023-04-23T12:05:33;18.70;88.90
25058;DHT22;13057;50.978;11.034;2023-04-23T12:08:09;18.70;88.20
25058;DHT22;13057;50.978;11.034;2023-04-23T12:10:46;18.70;89.00
25058;DHT22;13057;50.978;11.034;2023-04-23T12:13:14;18.70;88.00
25058;DHT22;13057;50.978;11.034;2023-04-23T12:15:49;18.70;89.00
25058;DHT22;13057;50.978;11.034;2023-04-23T12:18:16;18.70;89.10
25058;DHT22;13057;50.978;11.034;2023-04-23T12:20:43;18.70;89.70
25058;DHT22;13057;50.978;11.034;2023-04-23T12:23:08;18.70;89.00
25058;DHT22;13057;50.978;11.034;2023-04-23T12:25:35;18.70;87.80
25058;DHT22;13057;50.978;11.034;2023-04-23T12:28:02;18.70;88.00
25058;DHT22;13057;50.978;11.034;2023-04-23T12:30:31;18.80;88.20
25058;DHT22;13057;50.978;11.034;2023-04-23T12:32:59;18.80;86.40
25058;DHT22;13057;50.978;11.034;2023-04-23T12:35:44;18.80;86.50
25058;DHT22;13057;50.978;11.034;2023-04-23T12:38:23;18.90;89.40
25058;DHT22;13057;50.978;11.034;2023-04-23T12:40:50;19.00;87.90
25058;DHT22;13057;50.978;11.034;2023-04-23T12:43:16;19.10;91.30
25058;DHT22;13057;50.978;11.034;2023-04-23T12:45:42;19.20;88.00
25058;DHT22;13057;50.978;11.034;2023-04-23T12:48:10;19.20;86.90
25058;DHT22;13057;50.978;11.034;2023-04-23T12:50:38;19.30;91.30
25058;DHT22;13057;50.978;11.034;2023-04-23T12:53:05;19.30;89.30
25058;DHT22;13057;50.978;11.034;2023-04-23T12:55:31;19.30;87.00
25058;DHT22;13057;50.978;11.034;2023-04-23T12:57:58;19.20;86.60
25058;DHT22;13057;50.978;11.034;2023-04-23T13:00:24;19.20;87.10
25058;DHT22;13057;50.978;11.034;2023-04-23T13:02:50;19.10;85.30
25058;DHT22;13057;50.978;11.034;2023-04-23T13:05:16;19.20;89.70
25058;DHT22;13057;50.978;11.034;2023-04-23T13:07:42;19.30;90.90
25058;DHT22;13057;50.978;11.034;2023-04-23T13:10:09;19.30;87.60
25058;DHT22;13057;50.978;11.034;2023-04-23T13:12:35;19.40;89.10
25058;DHT22;13057;50.978;11.034;2023-04-23T13:15:01;19.40;90.10
25058;DHT22;13057;50.978;11.034;2023-04-23T13:17:27;19.40;86.90
25058;DHT22;13057;50.978;11.034;2023-04-23T13:19:53;19.40;87.20
25058;DHT22;13057;50.978;11.034;2023-04-23T13:22:21;19.50;87.60
25058;DHT22;13057;50.978;11.034;2023-04-23T13:24:47;19.60;86.50
25058;DHT22;13057;50.978;11.034;2023-04-23T13:27:13;19.50;86.70
25058;DHT22;13057;50.978;11.034;2023-04-23T13:29:39;19.50;90.50
25058;DHT22;13057;50.978;11.034;2023-04-23T13:32:05;19.50;89.70
25058;DHT22;13057;50.978;11.034;2023-04-23T13:34:31;19.60;91.80
25058;DHT22;13057;50.978;11.034;2023-04-23T13:36:58;19.60;91.60
25058;DHT22;13057;50.978;11.034;2023-04-23T13:39:24;19.60;90.50
25058;DHT22;13057;50.978;11.034;2023-04-23T13:41:51;19.50;88.30
25058;DHT22;13057;50.978;11.034;2023-04-23T13:44:17;19.50;90.00
25058;DHT22;13057;50.978;11.034;2023-04-23T13:46:43;19.40;86.90
25058;DHT22;13057;50.978;11.034;2023-04-23T13:49:09;19.40;86.70
25058;DHT22;13057;50.978;11.034;2023-04-23T13:51:35;19.40;86.20
25058;DHT22;13057;50.978;11.034;2023-04-23T13:54:00;19.30;86.80
25058;DHT22;13057;50.978;11.034;2023-04-23T13:56:27;19.40;87.10
25058;DHT22;13057;50.978;11.034;2023-04-23T13:58:54;19.40;87.50
25058;DHT22;13057;50.978;11.034;2023-04-23T14:01:24;19.40;89.00
25058;DHT22;13057;50.978;11.034;2023-04-23T14:03:50;19.50;87.60
25058;DHT22;13057;50.978;11.034;2023-04-23T14:06:15;19.50;90.60
25058;DHT22;13057;50.978;11.034;2023-04-23T14:08:41;19.60;91.00
25058;DHT22;13057;50.978;11.034;2023-04-23T14:11:07;19.60;87.40
25058;DHT22;13057;50.978;11.034;2023-04-23T14:13:33;19.70;90.60
25058;DHT22;13057;50.978;11.034;2023-04-23T14:15:59;19.70;92.00
25058;DHT22;13057;50.978;11.034;2023-04-23T14:18:25;19.70;86.10
25058;DHT22;13057;50.978;11.034;2023-04-23T14:20:51;19.60;85.20
25058;DHT22;13057;50.978;11.034;2023-04-23T14:23:42;19.60;85.50
25058;DHT22;13057;50.978;11.034;2023-04-23T14:26:09;19.50;85.20
25058;DHT22;13057;50.978;11.034;2023-04-23T14:28:46;19.50;84.20
25058;DHT22;13057;50.978;11.034;2023-04-23T14:31:15;19.50;84.20
25058;DHT22;13057;50.978;11.034;2023-04-23T14:33:41;19.40;83.10
25058;DHT22;13057;50.978;11.034;2023-04-23T14:36:07;19.40;84.10
25058;DHT22;13057;50.978;11.034;2023-04-23T14:38:33;19.40;83.20
25058;DHT22;13057;50.978;11.034;2023-04-23T14:40:59;19.40;84.80
25058;DHT22;13057;50.978;11.034;2023-04-23T14:43:25;19.40;89.00
25058;DHT22;13057;50.978;11.034;2023-04-23T14:45:52;19.50;87.90
25058;DHT22;13057;50.978;11.034;2023-04-23T14:48:17;19.50;87.00
25058;DHT22;13057;50.978;11.034;2023-04-23T14:50:43;19.50;85.70
25058;DHT22;13057;50.978;11.034;2023-04-23T14:53:10;19.50;84.20
25058;DHT22;13057;50.978;11.034;2023-04-23T14:55:36;19.50;90.90
25058;DHT22;13057;50.978;11.034;2023-04-23T14:58:03;19.60;91.30
25058;DHT22;13057;50.978;11.034;2023-04-23T15:00:28;19.60;86.70
25058;DHT22;13057;50.978;11.034;2023-04-23T15:02:55;19.60;86.40
25058;DHT22;13057;50.978;11.034;2023-04-23T15:05:21;19.60;89.40
25058;DHT22;13057;50.978;11.034;2023-04-23T15:07:47;19.70;87.70
25058;DHT22;13057;50.978;11.034;2023-04-23T15:10:13;19.70;90.70
25058;DHT22;13057;50.978;11.034;2023-04-23T15:13:01;19.60;86.50
25058;DHT22;13057;50.978;11.034;2023-04-23T15:15:42;19.50;88.70